Time;durP1;ratioP1;P1;durP2;ratioP2;P2;SDS_P1;SDS_P2;PMS_P1;PMS_P2;Temp;Humidity;BMP_temperature;BMP_pressure;BME280_temperature;BME280_humidity;BME280_pressure;Samples;Min_cycle;Max_cycle;Signal;HPM_P1;HPM_P2
2023/09/11 00:01:06;;;;;;;9.73;8.80;;;;;;;20.31;100.00;100910.50;6059811;23;20390;-73
2023/09/11 00:03:33;;;;;;;9.60;8.70;;;;;;;20.07;100.00;100883.41;6055014;23;20090;-76
2023/09/11 00:06:04;;;;;;;10.48;9.00;;;;;;;20.62;100.00;100974.41;6080951;23;20019;-74
2023/09/11 00:08:31;;;;;;;16.45;11.35;;;;;;;20.59;100.00;100968.53;6059137;23;20030;-73
2023/09/11 00:10:58;;;;;;;10.00;9.10;;;;;;;20.49;100.00;100963.16;6062824;23;20397;-74
2023/09/11 00:13:26;;;;;;;12.82;9.77;;;;;;;20.54;100.00;100974.22;6060811;23;20034;-73
2023/09/11 00:15:52;;;;;;;10.02;9.13;;;;;;;20.52;100.00;100971.69;6064283;23;20072;-74
2023/09/11 00:18:18;;;;;;;12.00;9.60;;;;;;;20.53;100.00;100975.22;6058282;23;20051;-74
2023/09/11 00:20:45;;;;;;;10.30;9.30;;;;;;;20.50;100.00;100962.97;6057358;23;20086;-75
2023/09/11 00:23:11;;;;;;;9.90;8.90;;;;;;;20.23;100.00;100923.66;6056649;23;20433;-75
2023/09/11 00:25:38;;;;;;;10.15;9.15;;;;;;;19.97;100.00;100896.69;6053412;23;20050;-76
2023/09/11 00:28:05;;;;;;;9.88;8.98;;;;;;;20.09;100.00;100913.41;6055222;23;20027;-75
2023/09/11 00:30:31;;;;;;;10.30;9.18;;;;;;;20.44;100.00;100971.53;6054583;23;20010;-74
2023/09/11 00:32:58;;;;;;;10.07;9.18;;;;;;;20.17;100.00;100926.88;6058959;23;20029;-74
2023/09/11 00:35:24;;;;;;;9.77;8.80;;;;;;;20.33;100.00;100964.50;6052003;23;20500;-75
2023/09/11 00:37:51;;;;;;;10.05;9.05;;;;;;;20.31;100.00;100966.47;6057522;23;20027;-76
2023/09/11 00:40:18;;;;;;;10.20;9.15;;;;;;;20.20;100.00;100942.59;6061536;23;20542;-75
2023/09/11 00:42:44;;;;;;;9.45;8.55;;;;;;;20.43;100.00;100975.19;6084254;23;20156;-74
2023/09/11 00:45:11;;;;;;;9.90;9.00;;;;;;;20.43;100.00;100975.19;6059592;23;20048;-74
2023/09/11 00:47:39;;;;;;;10.13;9.02;;;;;;;20.48;100.00;100977.44;6084392;23;20021;-74
2023/09/11 00:50:09;;;;;;;10.57;9.57;;;;;;;20.49;100.00;100979.97;6079542;23;20025;-75
2023/09/11 00:52:36;;;;;;;10.45;9.13;;;;;;;20.04;100.00;100899.63;6080089;23;20034;-75
2023/09/11 00:55:03;;;;;;;10.63;9.50;;;;;;;20.02;100.00;100901.59;6079756;23;20011;-75
2023/09/11 00:57:30;;;;;;;12.48;9.30;;;;;;;19.51;100.00;100813.69;6084604;23;20068;-74
2023/09/11 00:59:57;;;;;;;10.60;9.50;;;;;;;20.31;100.00;100936.31;6074074;23;20132;-74
2023/09/11 01:02:23;;;;;;;10.05;9.18;;;;;;;19.98;100.00;100895.69;6085368;23;20337;-74
2023/09/11 01:04:50;;;;;;;9.75;8.85;;;;;;;20.53;100.00;100975.22;6076603;23;20172;-75
2023/09/11 01:07:17;;;;;;;10.63;9.52;;;;;;;20.36;100.00;100949.22;6085312;23;20375;-76
2023/09/11 01:09:44;;;;;;;9.98;9.00;;;;;;;20.47;100.00;100963.28;6079674;23;20378;-75
2023/09/11 01:12:10;;;;;;;10.45;9.43;;;;;;;20.29;100.00;100939.09;6080328;23;20509;-74
2023/09/11 01:14:37;;;;;;;17.17;10.50;;;;;;;19.93;100.00;100896.09;6085331;23;20055;-76
2023/09/11 01:17:32;;;;;;;10.75;9.65;;;;;;;20.33;100.00;100974.34;6083078;23;20053;-75
2023/09/11 01:20:19;;;;;;;12.15;9.23;;;;;;;20.12;100.00;100943.25;6060000;23;20046;-75
2023/09/11 01:23:10;;;;;;;11.13;9.23;;;;;;;20.18;100.00;100976.53;6082967;23;20026;-76
2023/09/11 01:26:05;;;;;;;13.60;9.25;;;;;;;20.12;100.00;100977.91;6062942;23;20021;-76
2023/09/11 01:28:43;;;;;;;11.55;9.65;;;;;;;20.10;100.00;100981.69;6085512;23;20026;-75
2023/09/11 01:31:10;;;;;;;12.27;9.50;;;;;;;20.06;100.00;100981.09;6086397;23;20049;-77
2023/09/11 01:33:37;;;;;;;12.10;9.75;;;;;;;19.90;100.00;100973.63;6089664;23;20100;-75
2023/09/11 01:36:03;;;;;;;10.45;9.45;;;;;;;19.86;100.00;100958.03;6089525;23;20021;-77
2023/09/11 01:38:30;;;;;;;10.75;9.73;;;;;;;19.98;100.00;100983.59;6084995;23;20032;-76
2023/09/11 01:40:59;;;;;;;14.90;10.30;;;;;;;19.96;100.00;100984.72;6082354;23;20099;-79
2023/09/11 01:43:31;;;;;;;10.05;9.02;;;;;;;19.26;100.00;100870.03;6083933;23;20093;-76
2023/09/11 01:46:02;;;;;;;9.70;8.70;;;;;;;19.43;100.00;100903.19;6063908;23;20014;-75
2023/09/11 01:48:31;;;;;;;10.13;9.20;;;;;;;19.89;100.00;100981.75;6087181;23;20038;-77
2023/09/11 01:50:58;;;;;;;11.80;9.27;;;;;;;19.41;100.00;100897.16;6085360;23;20036;-76
2023/09/11 01:53:26;;;;;;;10.02;9.02;;;;;;;19.82;100.00;100976.09;6060455;23;20674;-75
2023/09/11 01:55:55;;;;;;;11.38;10.02;;;;;;;19.82;100.00;100978.78;6081456;23;20095;-76
2023/09/11 01:58:21;;;;;;;10.63;9.38;;;;;;;19.61;100.00;100948.66;6086345;23;20056;-77
2023/09/11 02:00:48;;;;;;;11.27;9.82;;;;;;;19.79;100.00;100984.38;6088090;23;20089;-75
2023/09/11 02:03:16;;;;;;;12.55;9.57;;;;;;;19.57;100.00;100950.75;6086831;23;20708;-76
2023/09/11 02:05:43;;;;;;;10.70;9.80;;;;;;;19.76;100.00;100981.97;6081757;23;20085;-75
2023/09/11 02:08:09;;;;;;;10.80;9.80;;;;;;;19.51;100.00;100949.44;6088007;23;20021;-76
2023/09/11 02:10:38;;;;;;;10.88;9.88;;;;;;;19.70;100.00;100983.34;6085754;23;20022;-75
2023/09/11 02:13:05;;;;;;;13.05;9.40;;;;;;;19.43;100.00;100933.28;6086094;23;20033;-75
2023/09/11 02:15:31;;;;;;;10.25;9.32;;;;;;;19.60;100.00;100970.94;6085594;23;20092;-74
2023/09/11 02:17:57;;;;;;;10.52;9.52;;;;;;;19.71;100.00;100990.38;6087999;23;20499;-75
2023/09/11 02:20:24;;;;;;;9.52;8.60;;;;;;;19.44;100.00;100948.28;6059186;23;20033;-75
2023/09/11 02:22:53;;;;;;;13.82;9.43;;;;;;;19.20;100.00;100924.59;6061436;23;20029;-74
2023/09/11 02:25:19;;;;;;;11.65;9.45;;;;;;;19.65;100.00;100990.03;6086648;23;20270;-74
2023/09/11 02:27:46;;;;;;;9.77;8.98;;;;;;;19.31;100.00;100935.19;6083185;23;20054;-75
2023/09/11 02:30:12;;;;;;;10.30;9.40;;;;;;;19.61;100.00;100988.59;6087509;23;20013;-75
2023/09/11 02:32:39;;;;;;;14.18;9.35;;;;;;;19.23;100.00;100939.47;6085286;23;20169;-75
2023/09/11 02:35:05;;;;;;;10.77;9.65;;;;;;;19.04;100.00;100906.47;6084087;23;20624;-74
2023/09/11 02:37:32;;;;;;;11.02;9.23;;;;;;;19.20;100.00;100955.69;6084595;23;20026;-74
2023/09/11 02:39:59;;;;;;;10.38;9.35;;;;;;;19.46;100.00;100986.25;6085411;23;20050;-74
2023/09/11 02:42:26;;;;;;;10.65;9.45;;;;;;;19.15;100.00;100937.47;6060869;23;20037;-74
2023/09/11 02:44:53;;;;;;;9.77;8.88;;;;;;;18.91;100.00;100900.47;6078708;23;20028;-74
2023/09/11 02:47:19;;;;;;;10.55;9.48;;;;;;;19.41;100.00;100987.63;6080359;23;20141;-75
2023/09/11 02:49:46;;;;;;;10.60;9.45;;;;;;;19.38;100.00;100996.72;6082335;23;20010;-75
2023/09/11 02:52:12;;;;;;;9.52;8.82;;;;;;;19.35;100.00;101001.47;6081356;23;20022;-75
2023/09/11 02:54:38;;;;;;;10.30;9.30;;;;;;;19.10;100.00;100958.28;6085045;23;20026;-76
2023/09/11 02:57:06;;;;;;;9.23;8.30;;;;;;;18.96;100.00;100929.34;6089737;23;20034;-75
2023/09/11 02:59:35;;;;;;;10.50;9.15;;;;;;;18.71;100.00;100894.16;6083271;23;20049;-75
2023/09/11 03:02:01;;;;;;;10.18;9.15;;;;;;;19.16;100.00;100973.72;6086350;23;20099;-74
2023/09/11 03:04:28;;;;;;;10.13;9.13;;;;;;;19.01;100.00;100957.25;6089946;23;20037;-74
2023/09/11 03:06:55;;;;;;;10.27;9.27;;;;;;;18.96;100.00;100939.97;6083770;23;20034;-75
2023/09/11 03:09:21;;;;;;;10.35;9.43;;;;;;;18.58;100.00;100888.97;6086815;23;20010;-76
2023/09/11 03:11:47;;;;;;;12.05;10.85;;;;;;;18.87;100.00;100939.78;6080008;23;20480;-74
2023/09/11 03:14:17;;;;;;;11.23;10.32;;;;;;;19.14;100.00;100983.66;6083866;23;20659;-74
2023/09/11 03:16:43;;;;;;;11.88;10.35;;;;;;;18.74;100.00;100926.66;6066580;23;20104;-74
2023/09/11 03:19:10;;;;;;;11.20;9.50;;;;;;;18.77;100.00;100936.16;6085383;23;20477;-75
2023/09/11 03:21:37;;;;;;;9.85;8.85;;;;;;;18.70;100.00;100924.34;6083748;23;20048;-72
2023/09/11 03:24:04;;;;;;;10.45;9.43;;;;;;;19.02;100.00;100984.69;6057275;23;20014;-75
2023/09/11 03:26:30;;;;;;;10.85;9.70;;;;;;;17.80;100.00;100792.66;6078685;23;20029;-75
2023/09/11 03:28:57;;;;;;;11.13;9.68;;;;;;;18.97;100.00;100985.06;6075201;23;20037;-75
2023/09/11 03:31:23;;;;;;;14.70;9.90;;;;;;;18.72;100.00;100949.00;6083555;23;20182;-74
2023/09/11 03:33:49;;;;;;;9.38;8.55;;;;;;;18.56;100.00;100938.78;6082545;23;20444;-73
2023/09/11 03:36:17;;;;;;;13.10;10.00;;;;;;;18.39;100.00;100907.44;6090155;23;20314;-74
2023/09/11 03:38:44;;;;;;;10.90;9.85;;;;;;;18.95;100.00;100986.19;6085220;23;20051;-74
2023/09/11 03:41:11;;;;;;;10.10;9.10;;;;;;;18.46;100.00;100909.47;6083700;23;20524;-74
2023/09/11 03:43:40;;;;;;;10.57;9.50;;;;;;;18.91;100.00;100982.94;6075719;23;20459;-74
2023/09/11 03:46:06;;;;;;;9.95;8.98;;;;;;;18.88;100.00;100980.50;6076100;23;20081;-74
2023/09/11 03:48:32;;;;;;;10.25;9.25;;;;;;;18.25;100.00;100874.03;6081942;23;20143;-72
2023/09/11 03:50:59;;;;;;;10.10;9.23;;;;;;;18.40;100.00;100895.81;6079633;23;20024;-73
2023/09/11 03:53:25;;;;;;;9.77;8.88;;;;;;;18.79;100.00;100970.63;6084954;23;20036;-73
2023/09/11 03:55:52;;;;;;;10.00;9.10;;;;;;;18.44;100.00;100915.88;6052415;23;20274;-76
2023/09/11 03:58:18;;;;;;;11.30;10.25;;;;;;;18.37;100.00;100902.25;6055981;23;20021;-74
2023/09/11 04:00:45;;;;;;;10.30;9.40;;;;;;;17.65;100.00;100788.56;6080039;23;20020;-76
2023/09/11 04:03:12;;;;;;;10.43;9.40;;;;;;;18.74;100.00;100984.28;6054775;23;20105;-73
2023/09/11 04:05:39;;;;;;;9.68;8.77;;;;;;;17.80;100.00;100819.19;6084064;23;20026;-75
2023/09/11 04:08:08;;;;;;;10.63;9.48;;;;;;;18.62;100.00;100967.53;6081191;23;20212;-74
2023/09/11 04:10:35;;;;;;;10.13;9.18;;;;;;;18.19;100.00;100891.31;6081709;23;20472;-73
2023/09/11 04:13:01;;;;;;;12.40;9.88;;;;;;;18.63;100.00;100966.56;6054371;23;20030;-73
2023/09/11 04:15:28;;;;;;;11.10;9.40;;;;;;;18.68;100.00;100968.81;6083617;23;20044;-75
2023/09/11 04:17:56;;;;;;;10.10;9.20;;;;;;;18.66;100.00;100971.63;6080827;23;20034;-74
2023/09/11 04:20:23;;;;;;;11.15;9.98;;;;;;;18.18;100.00;100889.63;6083551;23;20165;-73
2023/09/11 04:22:49;;;;;;;9.90;8.90;;;;;;;18.40;100.00;100925.06;6081223;23;20026;-73
2023/09/11 04:25:16;;;;;;;13.63;10.00;;;;;;;18.33;100.00;100927.38;6079040;23;20030;-74
2023/09/11 04:27:42;;;;;;;13.95;9.57;;;;;;;18.13;100.00;100882.00;6080530;23;20073;-74
2023/09/11 04:30:09;;;;;;;11.18;10.07;;;;;;;18.37;100.00;100934.13;6055825;23;20358;-75
2023/09/11 04:32:35;;;;;;;12.57;9.40;;;;;;;18.04;100.00;100892.53;6054199;23;20397;-75
2023/09/11 04:35:02;;;;;;;10.15;9.15;;;;;;;18.45;100.00;100957.44;6078141;23;20652;-73
2023/09/11 04:37:30;;;;;;;12.80;8.93;;;;;;;18.42;100.00;100955.00;6076588;23;20749;-73
2023/09/11 04:39:58;;;;;;;16.08;9.50;;;;;;;18.01;100.00;100895.47;6056223;23;20444;-75
2023/09/11 04:42:25;;;;;;;11.90;9.00;;;;;;;18.35;100.00;100952.00;6048036;23;20088;-74
2023/09/11 04:44:51;;;;;;;11.18;9.48;;;;;;;18.22;100.00;100930.06;6077918;23;20021;-72
2023/09/11 04:47:19;;;;;;;9.50;8.65;;;;;;;17.90;100.00;100894.50;6081368;23;20518;-73
2023/09/11 04:49:45;;;;;;;9.88;8.85;;;;;;;18.32;100.00;100958.44;6076377;23;20025;-74
2023/09/11 04:52:12;;;;;;;10.88;9.27;;;;;;;18.27;100.00;100947.31;6085413;23;20483;-73
2023/09/11 04:54:38;;;;;;;13.60;9.15;;;;;;;18.23;100.00;100953.84;6082813;23;20066;-73
2023/09/11 04:57:04;;;;;;;10.35;9.25;;;;;;;17.78;100.00;100881.31;6082913;23;20365;-73
2023/09/11 04:59:31;;;;;;;20.38;8.75;;;;;;;18.25;100.00;100951.06;6080849;23;20036;-72
2023/09/11 05:01:57;;;;;;;9.32;8.30;;;;;;;17.85;100.00;100893.19;6080738;23;20202;-73
2023/09/11 05:04:24;;;;;;;10.35;8.60;;;;;;;18.06;100.00;100931.31;6082844;23;20037;-73
2023/09/11 05:06:51;;;;;;;10.23;9.18;;;;;;;17.43;100.00;100824.78;6083336;23;20034;-74
2023/09/11 05:09:17;;;;;;;10.45;8.68;;;;;;;18.24;100.00;100952.03;6081753;23;20018;-72
2023/09/11 05:11:44;;;;;;;11.57;9.10;;;;;;;18.23;100.00;100958.31;6083195;23;20030;-74
2023/09/11 05:14:11;;;;;;;9.95;8.95;;;;;;;17.99;100.00;100919.47;6053013;23;20021;-73
2023/09/11 05:16:37;;;;;;;8.90;8.10;;;;;;;17.94;100.00;100903.91;6079008;23;20033;-74
2023/09/11 05:19:04;;;;;;;9.63;8.82;;;;;;;18.16;100.00;100927.88;6081261;23;20072;-72
2023/09/11 05:21:32;;;;;;;13.05;9.23;;;;;;;17.69;100.00;100838.63;6085216;23;20556;-73
2023/09/11 05:24:01;;;;;;;9.38;8.57;;;;;;;17.73;100.00;100844.53;6079349;23;20018;-73
2023/09/11 05:26:28;;;;;;;11.93;8.75;;;;;;;17.84;100.00;100859.63;6072134;23;20028;-72
2023/09/11 05:28:54;;;;;;;11.65;9.00;;;;;;;18.23;100.00;100915.81;6053455;23;20244;-73
2023/09/11 05:31:21;;;;;;;11.23;9.55;;;;;;;18.16;100.00;100888.03;6079967;23;20026;-73
2023/09/11 05:33:50;;;;;;;9.65;8.77;;;;;;;18.09;100.00;100877.09;6083931;23;20026;-73
2023/09/11 05:36:17;;;;;;;9.00;8.30;;;;;;;18.41;100.00;100913.47;6081499;23;20030;-74
2023/09/11 05:38:47;;;;;;;10.35;8.80;;;;;;;17.85;100.00;100821.50;6065983;23;20030;-73
2023/09/11 05:41:35;;;;;;;8.45;7.78;;;;;;;18.36;100.00;100918.31;6001989;23;20010;-73
2023/09/11 05:44:03;;;;;;;10.57;8.80;;;;;;;18.15;100.00;100847.38;6082044;23;20006;-72
2023/09/11 05:46:30;;;;;;;12.57;8.90;;;;;;;18.57;100.00;100900.59;6089184;23;20460;-73
2023/09/11 05:48:56;;;;;;;12.18;9.45;;;;;;;18.68;100.00;100913.88;6056207;23;20082;-73
2023/09/11 05:51:23;;;;;;;12.30;9.15;;;;;;;18.32;100.00;100845.97;6090077;23;20076;-73
2023/09/11 05:53:49;;;;;;;9.65;8.75;;;;;;;18.45;100.00;100867.06;6087504;23;20032;-72
2023/09/11 05:56:16;;;;;;;8.63;7.93;;;;;;;18.86;100.00;100923.94;6089229;23;20038;-73
2023/09/11 05:58:43;;;;;;;9.18;8.27;;;;;;;18.87;100.00;100921.16;6070975;23;20030;-74
2023/09/11 06:01:10;;;;;;;10.00;9.00;;;;;;;18.86;100.00;100897.34;6063105;23;20088;-74
2023/09/11 06:03:36;;;;;;;9.80;8.25;;;;;;;19.00;100.00;100922.78;6088922;23;20500;-73
2023/09/11 06:06:03;;;;;;;10.65;8.60;;;;;;;18.88;100.00;100871.47;6086671;23;20381;-73
2023/09/11 06:08:29;;;;;;;9.02;8.02;;;;;;;18.14;100.00;100744.72;6090720;23;20012;-73
2023/09/11 06:10:59;;;;;;;9.93;9.00;;;;;;;19.08;100.00;100893.72;6087923;23;20018;-74
2023/09/11 06:13:26;;;;;;;9.73;8.77;;;;;;;19.06;100.00;100877.91;6084927;23;20046;-74
2023/09/11 06:15:53;;;;;;;9.07;8.27;;;;;;;19.14;100.00;100863.94;6086767;23;20085;-74
2023/09/11 06:18:19;;;;;;;9.45;8.55;;;;;;;18.70;100.00;100792.28;6088646;23;20033;-74
2023/09/11 06:20:45;;;;;;;11.88;9.93;;;;;;;18.82;100.00;100784.25;6083122;23;20037;-74
2023/09/11 06:23:12;;;;;;;9.82;8.93;;;;;;;19.59;100.00;100889.38;6056180;23;20027;-74
2023/09/11 06:25:39;;;;;;;8.63;7.93;;;;;;;19.30;100.00;100816.44;6067200;23;20079;-73
2023/09/11 06:28:05;;;;;;;9.70;8.75;;;;;;;19.57;100.00;100830.94;6045594;23;20049;-75
2023/09/11 06:30:33;;;;;;;10.45;8.50;;;;;;;19.83;100.00;100852.63;6084107;23;20574;-73
2023/09/11 06:33:00;;;;;;;8.65;7.93;;;;;;;19.62;100.00;100791.44;6088417;23;20071;-74
2023/09/11 06:35:26;;;;;;;9.52;8.57;;;;;;;19.78;100.00;100787.44;6052446;23;20048;-73
2023/09/11 06:37:53;;;;;;;10.43;8.50;;;;;;;19.84;100.00;100771.75;6089393;23;20029;-73
2023/09/11 06:40:19;;;;;;;9.27;8.43;;;;;;;20.23;100.00;100803.75;6087570;23;20026;-75
2023/09/11 06:42:46;;;;;;;11.68;9.02;;;;;;;20.40;100.00;100780.84;6035105;23;20097;-73
2023/09/11 06:45:12;;;;;;;10.88;9.85;;;;;;;20.19;100.00;100709.06;6073917;23;20113;-74
2023/09/11 06:47:39;;;;;;;9.25;8.23;;;;;;;20.67;100.00;100769.50;6088487;23;20045;-74
2023/09/11 06:50:05;;;;;;;9.82;8.50;;;;;;;20.55;100.00;100711.97;6082966;23;20113;-73
2023/09/11 06:52:38;;;;;;;9.68;8.48;;;;;;;20.85;100.00;100744.75;6070375;23;20582;-73
2023/09/11 06:55:06;;;;;;;9.90;7.65;;;;;;;20.91;100.00;100729.00;6056739;23;20053;-73
2023/09/11 06:57:33;;;;;;;8.30;7.60;;;;;;;20.69;100.00;100654.69;6049101;23;20028;-75
2023/09/11 07:00:00;;;;;;;8.90;8.10;;;;;;;20.71;100.00;100631.38;6087091;23;20022;-76
2023/09/11 07:02:26;;;;;;;9.95;7.70;;;;;;;21.23;100.00;100684.19;6059857;23;20199;-74
2023/09/11 07:04:52;;;;;;;12.07;8.38;;;;;;;20.97;100.00;100627.97;6067199;23;20106;-73
2023/09/11 07:07:19;;;;;;;9.35;8.07;;;;;;;21.26;100.00;100655.34;6085318;23;20343;-73
2023/09/11 07:09:46;;;;;;;9.10;8.07;;;;;;;21.31;100.00;100610.34;6082895;23;20036;-74
2023/09/11 07:12:12;;;;;;;8.77;7.97;;;;;;;21.48;100.00;100587.34;6083974;23;20232;-74
2023/09/11 07:14:38;;;;;;;10.20;8.13;;;;;;;21.75;100.00;100593.56;6086412;23;20018;-76
2023/09/11 07:17:05;;;;;;;8.68;7.93;;;;;;;21.72;99.38;100553.81;6085622;23;20028;-74
2023/09/11 07:19:31;;;;;;;7.88;7.28;;;;;;;21.74;98.10;100509.09;6050688;23;20022;-74
2023/09/11 07:21:58;;;;;;;8.80;7.40;;;;;;;22.04;96.63;100529.13;6084676;23;20507;-74
2023/09/11 07:24:24;;;;;;;7.95;7.25;;;;;;;22.38;95.59;100571.09;6061110;23;20093;-76
2023/09/11 07:26:51;;;;;;;8.75;7.60;;;;;;;22.23;93.91;100489.78;6060984;23;20018;-74
2023/09/11 07:29:17;;;;;;;8.25;7.65;;;;;;;22.26;92.50;100474.28;6084960;23;20029;-74
2023/09/11 07:31:44;;;;;;;8.13;7.30;;;;;;;22.50;92.94;100502.13;6083509;23;20346;-74
2023/09/11 07:34:12;;;;;;;8.32;7.63;;;;;;;22.76;90.28;100494.00;6085477;23;20033;-75
2023/09/11 07:36:39;;;;;;;8.23;7.53;;;;;;;22.54;87.79;100415.22;6091882;23;20065;-73
2023/09/11 07:39:05;;;;;;;8.23;7.38;;;;;;;22.72;86.37;100398.19;6089072;23;20006;-73
2023/09/11 07:41:32;;;;;;;11.57;7.82;;;;;;;22.74;85.25;100377.44;6091588;23;20343;-75
2023/09/11 07:43:58;;;;;;;7.95;7.28;;;;;;;22.53;85.26;100341.31;6084310;23;20033;-75
2023/09/11 07:46:25;;;;;;;7.78;7.18;;;;;;;23.36;85.08;100452.72;6085412;23;20089;-74
2023/09/11 07:48:51;;;;;;;8.48;7.70;;;;;;;23.06;83.51;100372.09;6085167;23;20030;-76
2023/09/11 07:51:18;;;;;;;8.32;7.53;;;;;;;22.95;82.42;100329.59;6080562;23;20062;-75
2023/09/11 07:53:45;;;;;;;8.27;7.60;;;;;;;23.31;82.30;100369.38;6084706;23;20021;-75
2023/09/11 07:56:12;;;;;;;8.57;7.30;;;;;;;23.78;80.89;100400.72;6087167;23;20104;-75
2023/09/11 07:58:39;;;;;;;7.90;7.30;;;;;;;23.83;79.09;100368.88;6082893;23;20089;-76
2023/09/11 08:01:06;;;;;;;9.50;7.50;;;;;;;23.92;79.64;100401.03;6081468;23;20065;-76
2023/09/11 08:03:34;;;;;;;8.50;7.70;;;;;;;24.02;78.24;100386.38;6060780;23;20018;-74
2023/09/11 08:06:04;;;;;;;7.78;7.10;;;;;;;23.70;76.24;100294.38;6081437;23;20054;-76
2023/09/11 08:08:30;;;;;;;8.50;7.80;;;;;;;23.61;75.43;100275.84;6087922;23;20022;-74
2023/09/11 08:10:57;;;;;;;7.97;7.30;;;;;;;23.82;75.65;100318.16;6059855;23;20018;-76
2023/09/11 08:13:24;;;;;;;8.52;7.82;;;;;;;24.18;76.40;100372.06;6051197;23;20522;-76
2023/09/11 08:15:50;;;;;;;9.32;7.40;;;;;;;24.44;74.32;100362.84;6059151;23;20018;-74
2023/09/11 08:18:17;;;;;;;8.93;7.50;;;;;;;24.38;73.40;100358.19;6086265;23;20005;-75
2023/09/11 08:20:49;;;;;;;7.47;6.88;;;;;;;24.28;72.03;100316.34;6084369;23;20020;-74
2023/09/11 08:23:16;;;;;;;8.38;7.68;;;;;;;24.76;73.74;100436.09;6084375;23;20609;-74
2023/09/11 08:25:42;;;;;;;13.50;8.50;;;;;;;24.60;72.32;100370.78;6058835;23;20083;-74
2023/09/11 08:28:09;;;;;;;9.45;7.53;;;;;;;24.97;70.71;100382.53;6054096;23;20090;-74
2023/09/11 08:30:35;;;;;;;8.85;7.93;;;;;;;24.98;69.92;100368.13;6085632;23;20546;-74
2023/09/11 08:33:04;;;;;;;14.10;8.23;;;;;;;24.81;69.64;100340.56;6057790;23;20049;-75
2023/09/11 08:35:31;;;;;;;9.05;7.30;;;;;;;24.78;68.65;100310.59;6089325;23;20018;-75
2023/09/11 08:37:58;;;;;;;10.20;7.80;;;;;;;25.32;68.18;100356.06;6086561;23;20484;-75
2023/09/11 08:40:30;;;;;;;9.45;7.07;;;;;;;25.53;67.74;100370.59;6086272;23;20133;-74
2023/09/11 08:42:58;;;;;;;8.23;7.38;;;;;;;25.36;67.83;100335.88;6084223;23;20034;-74
2023/09/11 08:45:26;;;;;;;8.20;7.40;;;;;;;25.73;66.04;100328.69;6088284;23;20056;-74
2023/09/11 08:47:56;;;;;;;8.00;7.30;;;;;;;25.54;66.26;100303.25;6082194;23;20018;-74
2023/09/11 08:50:27;;;;;;;8.82;7.93;;;;;;;25.85;65.60;100334.41;6078024;23;20853;-75
2023/09/11 08:52:55;;;;;;;7.35;6.82;;;;;;;25.85;65.64;100311.03;6082427;23;20022;-74
2023/09/11 08:55:24;;;;;;;10.02;8.00;;;;;;;26.03;63.83;100277.53;6086364;23;20506;-75
2023/09/11 08:57:52;;;;;;;11.80;7.38;;;;;;;26.24;64.08;100312.53;6084700;23;20029;-75
2023/09/11 09:00:19;;;;;;;7.88;7.18;;;;;;;26.35;63.05;100295.03;6083413;23;20029;-74
2023/09/11 09:02:46;;;;;;;7.80;7.07;;;;;;;25.82;63.56;100249.59;6067892;23;20026;-75
2023/09/11 09:05:15;;;;;;;7.63;6.97;;;;;;;26.32;64.01;100321.47;6082680;23;20365;-75
2023/09/11 09:07:43;;;;;;;7.88;7.18;;;;;;;26.44;63.55;100314.53;6059951;23;20026;-76
2023/09/11 09:10:11;;;;;;;8.13;7.13;;;;;;;26.74;62.65;100317.97;6091012;23;20006;-76
2023/09/11 09:12:39;;;;;;;8.10;7.35;;;;;;;26.98;61.54;100311.28;6059898;23;20083;-76
2023/09/11 09:15:06;;;;;;;7.85;7.15;;;;;;;26.80;60.61;100249.00;6084908;23;20010;-76
2023/09/11 09:17:33;;;;;;;7.70;7.05;;;;;;;26.68;60.64;100248.72;6086811;23;20038;-75
2023/09/11 09:20:00;;;;;;;8.68;6.97;;;;;;;27.19;60.66;100304.97;6086886;23;20475;-75
2023/09/11 09:22:26;;;;;;;8.60;7.20;;;;;;;27.23;60.75;100305.41;6082420;23;20398;-74
2023/09/11 09:24:54;;;;;;;8.32;7.70;;;;;;;26.99;60.36;100291.41;6069227;23;20175;-75
2023/09/11 09:27:24;;;;;;;7.80;7.20;;;;;;;27.09;61.52;100336.00;6096756;23;20017;-75
2023/09/11 09:29:51;;;;;;;8.07;7.38;;;;;;;27.06;59.38;100251.03;6061306;23;20029;-75
2023/09/11 09:32:17;;;;;;;8.23;7.43;;;;;;;27.28;60.11;100311.06;6069418;23;20097;-75
2023/09/11 09:34:54;;;;;;;7.93;7.22;;;;;;;27.69;59.18;100352.53;6097479;23;20018;-75
2023/09/11 09:37:21;;;;;;;7.88;7.25;;;;;;;27.76;58.45;100345.28;6087299;23;20030;-75
2023/09/11 09:39:48;;;;;;;7.93;7.18;;;;;;;27.91;57.69;100326.31;6087898;23;20119;-75
2023/09/11 09:42:16;;;;;;;7.72;7.07;;;;;;;28.03;57.86;100355.16;6090393;23;20045;-75
2023/09/11 09:44:52;;;;;;;8.18;7.55;;;;;;;28.07;57.77;100358.31;6086082;23;20026;-75
2023/09/11 09:47:21;;;;;;;8.50;7.70;;;;;;;27.84;57.25;100319.00;6092347;23;20537;-75
2023/09/11 09:49:54;;;;;;;7.63;6.97;;;;;;;28.02;55.96;100309.50;6094013;23;20048;-75
2023/09/11 09:52:21;;;;;;;;;;;;;;;28.27;54.90;100306.25;6066467;23;20021;-75
2023/09/11 09:54:54;;;;;;;8.55;7.75;;;;;;;28.31;54.81;100348.81;6092081;23;19937;-75
2023/09/11 09:57:23;;;;;;;12.68;7.28;;;;;;;28.23;54.77;100339.03;6091628;23;20034;-75
2023/09/11 09:59:59;;;;;;;8.35;7.53;;;;;;;28.46;54.92;100389.09;6058294;23;20029;-75
2023/09/11 10:02:31;;;;;;;7.80;7.10;;;;;;;28.67;55.19;100417.84;6075842;23;20052;-75
2023/09/11 10:05:06;;;;;;;7.50;6.90;;;;;;;28.80;54.36;100400.78;6087326;23;20022;-75
2023/09/11 10:07:36;;;;;;;7.75;7.05;;;;;;;28.95;53.41;100389.78;6088159;23;20052;-75
2023/09/11 10:10:23;;;;;;;7.63;7.05;;;;;;;28.80;53.58;100357.56;6065984;23;20081;-75
2023/09/11 10:13:11;;;;;;;7.50;6.95;;;;;;;29.27;52.81;100382.72;6091312;23;20030;-76
2023/09/11 10:15:40;;;;;;;7.38;6.70;;;;;;;29.14;52.42;100366.53;6092665;23;20024;-75
2023/09/11 10:18:09;;;;;;;10.20;8.32;;;;;;;29.08;52.66;100343.00;6087863;23;20416;-77
2023/09/11 10:20:37;;;;;;;8.20;7.50;;;;;;;29.47;51.93;100398.03;6076268;23;20074;-76
2023/09/11 10:23:05;;;;;;;8.27;7.68;;;;;;;29.30;51.88;100363.38;6092328;23;20067;-76
2023/09/11 10:25:38;;;;;;;7.82;7.07;;;;;;;29.55;51.45;100373.50;6081303;23;20093;-75
2023/09/11 10:28:08;;;;;;;8.02;7.32;;;;;;;29.86;52.08;100434.19;6089701;23;20522;-76
2023/09/11 10:30:45;;;;;;;8.02;7.38;;;;;;;29.38;52.72;100373.94;6092067;23;20014;-75
2023/09/11 10:33:26;;;;;;;8.23;7.53;;;;;;;29.89;52.39;100439.16;6068383;23;20029;-75
2023/09/11 10:35:59;;;;;;;11.35;7.97;;;;;;;29.97;50.92;100398.31;6088148;23;20022;-74
2023/09/11 10:38:30;;;;;;;8.68;7.80;;;;;;;29.91;51.43;100404.59;6095509;23;20467;-74
2023/09/11 10:41:00;;;;;;;8.15;7.55;;;;;;;29.82;51.33;100391.31;6069699;23;20037;-74
2023/09/11 10:43:27;;;;;;;8.20;7.50;;;;;;;29.89;50.85;100366.94;6089809;23;20104;-75
2023/09/11 10:45:54;;;;;;;8.32;7.13;;;;;;;30.42;50.49;100425.41;6087435;23;20164;-76
2023/09/11 10:48:31;;;;;;;8.32;7.68;;;;;;;30.31;49.12;100342.16;6085314;23;20041;-76
2023/09/11 10:50:59;;;;;;;7.95;7.25;;;;;;;30.21;49.05;100321.78;6086541;23;20030;-75
2023/09/11 10:53:30;;;;;;;13.80;7.03;;;;;;;30.40;49.25;100362.50;6080344;23;20026;-75
2023/09/11 10:56:00;;;;;;;7.60;7.10;;;;;;;30.54;49.01;100355.94;6092357;23;20108;-75
2023/09/11 10:58:28;;;;;;;7.75;7.15;;;;;;;30.77;47.77;100365.34;6091588;23;20050;-74
2023/09/11 11:00:56;;;;;;;8.43;7.13;;;;;;;30.70;47.81;100335.59;6081225;23;20042;-74
2023/09/11 11:03:28;;;;;;;7.40;6.80;;;;;;;30.71;47.82;100323.72;6095397;23;20025;-74
2023/09/11 11:06:00;;;;;;;7.97;7.22;;;;;;;30.57;47.86;100311.34;6060324;23;20017;-74
2023/09/11 11:08:31;;;;;;;7.35;6.70;;;;;;;30.49;47.21;100287.25;6092571;23;20073;-74
2023/09/11 11:11:00;;;;;;;7.97;7.20;;;;;;;30.76;47.48;100329.28;6082491;23;20030;-75
2023/09/11 11:13:26;;;;;;;9.82;7.20;;;;;;;30.71;46.43;100303.91;6066094;23;20129;-74
2023/09/11 11:16:15;;;;;;;7.82;6.93;;;;;;;30.78;47.46;100337.22;6086982;23;21001;-74
2023/09/11 11:18:42;;;;;;;7.88;7.25;;;;;;;30.42;47.80;100323.31;6088811;23;20681;-76
2023/09/11 11:21:09;;;;;;;7.53;6.88;;;;;;;30.59;46.97;100311.94;6088577;23;20742;-76